BU-353W10 USB GNSS センサー

通常価格:¥ 8,800 税込

¥ 7,700 税込

商品コード: BU353W10

数量

u-blox M8M最新GNSSチップ 
Microsoftアプリ(地図など)位置センサーを利用したアプリケーションで利用できます。 (Windows8/8.1/10)

※u-centerではUSBドライバーのインストールを行いません。
Use Windows Serial Driver を選択します。
(Windows10 OS標準のUSBシリアルドライバー)



Sensorとして接続する場合
u-center(ublox)をダウンロードしてセンサードライバーをインストールします。

Windows8 仮想COM VCPドライバー
VCP(USB)ドライバーも同時にインストールされますので従来のCOMポート経由の接続も可能です。
(COMポート9600bps) ※VCP経由ではu-blox独自のセンテンスも出力されます。(GPSビュワーでは文字化けセンテンスの文字化けがあります。詳細はお問合せ下さい。)
GPS/QZSS/GLONASS SBAS

GNSS チップ u-blox M8M 72ch
サイズ 径:53㎜ 高さ19.2㎜
USBケーブル 1.5M
防水 IPX6
動作温度 -40度から 80度
動作湿度 95%以下 結露無し
電源 USB 4.5V - 5.5V
インターフェイス USB2.0
サポートOS Windows8/10 Windows Location Sensor API 及び対応アプリ
AgriBus-NAVI,NewPec動作確認
Windows7ではVCP(COMポート)経由の動作可能
日本語クイックスタートガイド(兼保証書)

5Hz GPS QZSS Beidou
$GNGGA,023204.40,3544.06823,N,13943.57740,E,2,12,0.75,34.8,M,39.3,M,,0000*71
$GNGSA,A,3,24,15,20,13,21,05,28,10,42,193,194,50,1.38,0.75,1.15,1*07
$GNGSA,A,3,22,06,16,19,08,09,21,,,,,,1.38,0.75,1.15,4*02
$GPGSV,4,1,14,05,22,135,34,10,10,315,15,12,11,165,26,13,35,061,32,0*64
$GPGSV,4,2,14,15,64,033,33,20,38,312,39,21,34,268,23,24,67,226,45,0*6A
$GPGSV,4,3,14,28,14,048,17,42,48,171,31,50,48,171,32,193,88,117,37,0*5A
$GPGSV,4,4,14,194,51,167,47,195,06,189,,0*60
$GBGSV,3,1,09,06,56,305,39,08,36,216,26,09,34,283,28,12,04,267,,0*70
$GBGSV,3,2,09,13,43,249,,16,52,302,38,19,37,111,32,21,30,311,40,0*74
$GBGSV,3,3,09,22,76,015,33,0*4B
$GNGLL,3544.06823,N,13943.57740,E,023204.40,A,D*75
$GNRMC,023204.60,A,3544.06824,N,13943.57739,E,0.036,,261219,,,D,V*17
$GNVTG,,T,,M,0.036,N,0.067,K,D*3C
$GNGGA,023204.60,3544.06824,N,13943.57739,E,2,12,0.75,34.8,M,39.3,M,,0000*7A
$GNGSA,A,3,24,15,20,13,21,05,28,10,42,193,194,50,1.38,0.75,1.15,1*07
$GNGSA,A,3,22,06,16,19,08,09,21,,,,,,1.38,0.75,1.15,4*02
$GPGSV,4,1,14,05,22,135,34,10,10,315,15,12,11,165,26,13,35,061,32,0*64
$GPGSV,4,2,14,15,64,033,33,20,38,312,39,21,34,268,23,24,67,226,45,0*6A
$GPGSV,4,3,14,28,14,048,17,42,48,171,31,50,48,171,32,193,88,117,37,0*5A
$GPGSV,4,4,14,194,51,167,47,195,06,189,,0*60
$GBGSV,3,1,09,06,56,305,39,08,36,216,25,09,34,283,28,12,04,267,,0*73
$GBGSV,3,2,09,13,43,249,,16,52,302,38,19,37,111,32,21,30,311,40,0*74
$GBGSV,3,3,09,22,76,015,33,0*4B
$GNGLL,3544.06824,N,13943.57739,E,023204.60,A,D*7E
$GNRMC,023204.80,A,3544.06824,N,13943.57738,E,0.036,,261219,,,D,V*18
$GNVTG,,T,,M,0.036,N,0.067,K,D*3C
$GNGGA,023204.80,3544.06824,N,13943.57738,E,2,12,0.75,34.8,M,39.3,M,,0000*75
$GNGSA,A,3,24,15,20,13,21,05,28,10,42,193,194,50,1.38,0.75,1.15,1*07
$GNGSA,A,3,22,06,16,19,08,09,21,,,,,,1.38,0.75,1.15,4*02
$GPGSV,4,1,14,05,22,135,34,10,10,315,15,12,11,165,26,13,35,061,32,0*64
$GPGSV,4,2,14,15,64,033,33,20,38,312,39,21,34,268,23,24,67,226,45,0*6A
$GPGSV,4,3,14,28,14,048,18,42,48,171,31,50,48,171,32,193,88,117,37,0*55
$GPGSV,4,4,14,194,51,167,47,195,06,189,,0*60
$GBGSV,3,1,09,06,56,305,39,08,36,216,26,09,34,283,28,12,04,267,,0*70
$GBGSV,3,2,09,13,43,249,,16,52,302,38,19,37,111,32,21,30,311,40,0*74
$GBGSV,3,3,09,22,76,015,33,0*4B
$GNGLL,3544.06824,N,13943.57738,E,023204.80,A,D*71
$GNRMC,023205.00,A,3544.06824,N,13943.57737,E,0.036,,261219,,,D,V*1E
$GNVTG,,T,,M,0.036,N,0.067,K,D*3C
$GNGGA,023205.00,3544.06824,N,13943.57737,E,2,12,0.75,34.8,M,39.3,M,,0000*73
$GNGSA,A,3,24,15,20,13,21,05,28,10,42,193,194,50,1.38,0.75,1.15,1*07
$GNGSA,A,3,22,06,16,19,08,09,21,,,,,,1.38,0.75,1.15,4*02
$GPGSV,4,1,14,05,22,135,34,10,10,315,15,12,11,165,26,13,35,061,32,0*64
$GPGSV,4,2,14,15,64,033,33,20,38,312,39,21,34,268,23,24,67,226,45,0*6A
$GPGSV,4,3,14,28,14,048,18,42,48,171,31,50,48,171,32,193,88,117,37,0*55
$GPGSV,4,4,14,194,51,167,47,195,06,189,,0*60
$GBGSV,3,1,09,06,56,305,39,08,36,216,26,09,34,283,28,12,04,267,,0*70
$GBGSV,3,2,09,13,43,249,,16,52,302,38,19,37,111,32,21,30,311,40,0*74
$GBGSV,3,3,09,22,76,015,33,0*4B
$GNGLL,3544.06824,N,13943.57737,E,023205.00,A,D*77
$GNRMC,023205.20,A,3544.06824,N,13943.57735,E,0.037,,261219,,,D,V*1F
$GNVTG,,T,,M,0.037,N,0.068,K,D*32
$GNGGA,023205.20,3544.06824,N,13943.57735,E,2,12,0.75,34.8,M,39.3,M,,0000*73
$GNGSA,A,3,24,15,20,13,21,05,28,10,42,193,194,50,1.38,0.75,1.15,1*07
$GNGSA,A,3,22,06,16,19,08,09,21,,,,,,1.38,0.75,1.15,4*02
$GPGSV,4,1,14,05,22,135,34,10,10,315,15,12,11,165,26,13,35,061,32,0*64
$GPGSV,4,2,14,15,64,033,33,20,38,312,39,21,34,268,23,24,67,226,45,0*6A
$GPGSV,4,3,14,28,14,048,18,42,48,171,31,50,48,171,32,193,88,117,37,0*55
$GPGSV,4,4,14,194,51,167,47,195,06,189,,0*60
$GBGSV,3,1,09,06,56,305,39,08,36,216,26,09,34,283,28,12,04,267,,0*70
$GBGSV,3,2,09,13,43,249,,16,52,302,38,19,37,111,32,21,30,311,40,0*74
$GBGSV,3,3,09,22,76,015,33,0*4B
$GNGLL,3544.06824,N,13943.57735,E,023205.20,A,D*77
$GNRMC,023205.40,A,3544.06824,N,13943.57734,E,0.037,,261219,,,D,V*18
$GNVTG,,T,,M,0.037,N,0.068,K,D*32
$GNGGA,023205.40,3544.06824,N,13943.57734,E,2,12,0.75,34.7,M,39.3,M,,0000*7B
$GNGSA,A,3,24,15,20,13,21,05,28,10,42,193,194,50,1.38,0.75,1.15,1*07
$GNGSA,A,3,22,06,16,19,08,09,21,,,,,,1.38,0.75,1.15,4*02
$GPGSV,4,1,14,05,22,135,34,10,10,315,14,12,11,165,26,13,35,061,32,0*65
$GPGSV,4,2,14,15,64,033,33,20,38,312,39,21,34,268,23,24,67,226,45,0*6A
$GPGSV,4,3,14,28,14,048,18,42,48,171,31,50,48,171,32,193,88,117,37,0*55
$GPGSV,4,4,14,194,51,167,47,195,06,189,,0*60
$GBGSV,3,1,09,06,56,305,39,08,36,216,26,09,34,283,28,12,04,267,,0*70
$GBGSV,3,2,09,13,43,249,,16,52,302,38,19,37,111,32,21,30,311,40,0*74
$GBGSV,3,3,09,22,76,015,33,0*4B
$GNGLL,3544.06824,N,13943.57734,E,023205.40,A,D*70
$GNRMC,023205.60,A,3544.06824,N,13943.57733,E,0.037,,261219,,,D,V*1D
$GNVTG,,T,,M,0.037,N,0.069,K,D*33
$GNGGA,023205.60,3544.06824,N,13943.57733,E,2,12,0.75,34.7,M,39.3,M,,0000*7E
$GNGSA,A,3,24,15,20,13,21,05,28,10,42,193,194,50,1.38,0.75,1.15,1*07
$GNGSA,A,3,22,06,16,19,08,09,21,,,,,,1.38,0.75,1.15,4*02
$GPGSV,4,1,14,05,22,135,34,10,10,315,15,12,11,165,26,13,35,061,32,0*64
$GPGSV,4,2,14,15,64,033,33,20,38,312,39,21,34,268,24,24,67,226,45,0*6D
$GPGSV,4,3,14,28,14,048,18,42,48,171,31,50,48,171,32,193,88,117,37,0*55
$GPGSV,4,4,14,194,51,167,47,195,06,189,,0*60
$GBGSV,3,1,09,06,56,305,39,08,36,216,26,09,34,283,28,12,04,267,,0*70
$GBGSV,3,2,09,13,43,249,,16,52,302,38,19,37,111,33,21,30,311,40,0*75
$GBGSV,3,3,09,22,76,015,33,0*4B
$GNGLL,3544.06824,N,13943.57733,E,023205.60,A,D*75
$GNRMC,023205.80,A,3544.06824,N,13943.57731,E,0.037,,261219,,,D,V*11
$GNVTG,,T,,M,0.037,N,0.069,K,D*33
$GNGGA,023205.80,3544.06824,N,13943.57731,E,2,12,0.75,34.7,M,39.3,M,,0000*72
$GNGSA,A,3,24,15,20,13,21,05,28,10,42,193,194,50,1.38,0.75,1.15,1*07
$GNGSA,A,3,22,06,16,19,08,09,21,,,,,,1.38,0.75,1.15,4*02
$GPGSV,4,1,14,05,22,135,34,10,10,315,15,12,11,165,26,13,35,061,32,0*64
$GPGSV,4,2,14,15,64,033,33,20,38,312,39,21,34,268,24,24,67,226,45,0*6D
$GPGSV,4,3,14,28,14,048,18,42,48,171,31,50,48,171,32,193,88,117,37,0*55
$GPGSV,4,4,14,194,51,167,47,195,06,189,,0*60
$GBGSV,3,1,09,06,56,305,39,08,36,216,26,09,34,283,28,12,04,267,,0*70
$GBGSV,3,2,09,13,43,249,,16,52,302,38,19,37,111,33,21,30,311,40,0*75
$GBGSV,3,3,09,22,76,015,33,0*4B
$GNGLL,3544.06824,N,13943.57731,E,023205.80,A,D*79
$GNRMC,023206.00,A,3544.06824,N,13943.57730,E,0.038,,261219,,,D,V*14
$GNVTG,,T,,M,0.038,N,0.070,K,D*34
$GNGGA,023206.00,3544.06824,N,13943.57730,E,2,12,0.75,34.7,M,39.3,M,,0000*78
$GNGSA,A,3,24,15,20,13,21,05,28,10,42,193,194,50,1.38,0.75,1.15,1*07
$GNGSA,A,3,22,06,16,19,08,09,21,,,,,,1.38,0.75,1.15,4*02
$GPGSV,4,1,14,05,22,135,34,10,10,315,15,12,11,165,26,13,35,061,32,0*64
$GPGSV,4,2,14,15,64,033,33,20,38,312,39,21,34,268,24,24,67,226,45,0*6D
$GPGSV,4,3,14,28,14,048,18,42,48,171,31,50,48,171,32,193,88,117,37,0*55
$GPGSV,4,4,14,194,51,167,47,195,06,189,,0*60
$GBGSV,3,1,09,06,56,305,39,08,36,216,26,09,34,283,28,12,04,267,,0*70
$GBGSV,3,2,09,13,43,249,,16,52,302,38,19,37,111,33,21,30,311,40,0*75
$GBGSV,3,3,09,22,76,015,33,0*4B
$GNGLL,3544.06824,N,13943.57730,E,023206.00,A,D*73
$GNRMC,023206.20,A,3544.06824,N,13943.57729,E,0.038,,261219,,,D,V*1E
$GNVTG,,T,,M,0.038,N,0.070,K,D*34
$GNGGA,023206.20,3544.06824,N,13943.57729,E,2,12,0.75,34.7,M,39.3,M,,0000*72
$GNGSA,A,3,24,15,20,13,21,05,28,10,42,193,194,50,1.38,0.75,1.15,1*07
$GNGSA,A,3,22,06,16,19,08,09,21,,,,,,1.38,0.75,1.15,4*02
$GPGSV,4,1,14,05,22,135,34,10,10,315,15,12,11,165,26,13,35,061,32,0*64
$GPGSV,4,2,14,15,64,033,33,20,38,312,39,21,34,268,24,24,67,226,45,0*6D
$GPGSV,4,3,14,28,14,048,18,42,48,171,31,50,48,171,32,193,88,117,37,0*55
$GPGSV,4,4,14,194,51,167,47,195,06,189,,0*60
$GBGSV,3,1,09,06,56,305,39,08,36,216,26,09,34,283,28,12,04,267,,0*70
$GBGSV,3,2,09,13,43,249,,16,52,302,38,19,37,111,33,21,30,311,40,0*75
$GBGSV,3,3,09,22,76,015,33,0*4B
$GNGLL,3544.06824,N,13943.57729,E,023206.20,A,D*79
$GNRMC,023206.40,A,3544.06824,N,13943.57727,E,0.038,,261219,,,D,V*16
$GNVTG,,T,,M,0.038,N,0.071,K,D*35
$GNGGA,023206.40,3544.06824,N,13943.57727,E,2,12,0.75,34.7,M,39.3,M,,0000*7A
$GNGSA,A,3,24,15,20,13,21,05,28,10,42,193,194,50,1.38,0.75,1.15,1*07
$GNGSA,A,3,22,06,16,19,08,09,21,,,,,,1.38,0.75,1.15,4*02
$GPGSV,4,1,14,05,22,135,34,10,10,315,15,12,11,165,26,13,35,061,32,0*64
$GPGSV,4,2,14,15,64,033,33,20,38,312,39,21,34,268,24,24,67,226,45,0*6D
$GPGSV,4,3,14,28,14,048,18,42,48,171,31,50,48,171,32,193,88,117,37,0*55
$GPGSV,4,4,14,194,51,167,47,195,06,189,,0*60
$GBGSV,3,1,09,06,56,305,39,08,36,216,26,09,34,283,28,12,04,267,,0*70
$GBGSV,3,2,09,13,43,249,,16,52,302,38,19,37,111,33,21,30,311,40,0*75
$GBGSV,3,3,09,22,76,015,33,0*4B
$GNGLL,3544.06824,N,13943.57727,E,023206.40,A,D*71
$GNRMC,023206.60,A,3544.06824,N,13943.57726,E,0.038,,261219,,,D,V*15
$GNVTG,,T,,M,0.038,N,0.071,K,D*35
$GNGGA,023206.60,3544.06824,N,13943.57726,E,2,12,0.75,34.6,M,39.3,M,,0000*78
$GNGSA,A,3,24,15,20,13,21,05,28,10,42,193,194,50,1.38,0.75,1.15,1*07
$GNGSA,A,3,22,06,16,19,08,09,21,,,,,,1.38,0.75,1.15,4*02
$GPGSV,4,1,14,05,22,135,34,10,10,315,16,12,11,165,26,13,35,061,32,0*67
$GPGSV,4,2,14,15,64,033,33,20,38,312,39,21,34,268,24,24,67,226,45,0*6D
$GPGSV,4,3,14,28,14,048,18,42,48,171,31,50,48,171,32,193,88,117,37,0*55
$GPGSV,4,4,14,194,51,167,47,195,06,189,,0*60
$GBGSV,3,1,09,06,56,305,39,08,36,216,26,09,34,283,28,12,04,267,,0*70
$GBGSV,3,2,09,13,43,249,,16,52,302,38,19,37,111,33,21,30,311,40,0*75
$GBGSV,3,3,09,22,76,015,33,0*4B
$GNGLL,3544.06824,N,13943.57726,E,023206.60,A,D*72
$GNRMC,023206.80,A,3544.06824,N,13943.57725,E,0.039,,261219,,,D,V*19
$GNVTG,,T,,M,0.039,N,0.071,K,D*34
$GNGGA,023206.80,3544.06824,N,13943.57725,E,2,12,0.75,34.6,M,39.3,M,,0000*75
$GNGSA,A,3,24,15,20,13,21,05,28,10,42,193,194,50,1.38,0.75,1.15,1*07
$GNGSA,A,3,22,06,16,19,08,09,21,,,,,,1.38,0.75,1.15,4*02
$GPGSV,4,1,14,05,22,135,34,10,10,315,16,12,11,165,26,13,35,061,32,0*67
$GPGSV,4,2,14,15,64,033,33,20,38,312,39,21,34,268,24,24,67,226,45,0*6D
$GPGSV,4,3,14,28,14,048,18,42,48,171,31,50,48,171,32,193,88,117,37,0*55
$GPGSV,4,4,14,194,51,167,47,195,06,189,,0*60
$GBGSV,3,1,09,06,56,305,39,08,36,216,26,09,34,283,28,12,04,267,,0*70
$GBGSV,3,2,09,13,43,249,,16,52,302,38,19,37,111,33,21,30,311,40,0*75
$GBGSV,3,3,09,22,76,015,33,0*4B
$GNGLL,3544.06824,N,13943.57725,E,023206.80,A,D*7F
$GNRMC,023207.00,A,3544.06824,N,13943.57724,E,0.039,,261219,,,D,V*11
$GNVTG,,T,,M,0.039,N,0.072,K,D*37

※※
センサードライバーをインストールした後、センサーからCOMポートへ変更する場合は
デバイスマネージャーのセンサードライバーの更新を行い、 インストール済みのUSBシリアルドライバーへ変更します。

OPENキャンペーン \11,000以上送料無料
送料 \11,000以下 700円(税別 全国一律)
代引き \11,000未満330円・\33,000未満440円・\110,000未満660円・30万円未満1100円